Time;durP1;ratioP1;P1;durP2;ratioP2;P2;SDS_P1;SDS_P2;PMS_P1;PMS_P2;Temp;Humidity;BMP_temperature;BMP_pressure;BME280_temperature;BME280_humidity;BME280_pressure;Samples;Min_cycle;Max_cycle;Signal;HPM_P1;HPM_P2
2021/08/18 00:06:31;;;;;;;7.83;3.17;;;;;;;11.74;65.39;99122.78;532561;1089;116980;-61
2021/08/18 00:16:37;;;;;;;3.50;2.80;;;;;;;11.76;65.26;99136.66;531867;1089;116770;-61
2021/08/18 00:26:44;;;;;;;7.27;4.07;;;;;;;11.78;65.40;99124.22;532588;1089;116527;-61
2021/08/18 00:36:51;;;;;;;7.10;3.60;;;;;;;11.89;65.48;99141.82;532552;1088;118060;-61
2021/08/18 00:46:59;;;;;;;4.80;3.40;;;;;;;12.17;65.24;99152.86;528147;1088;116364;-60
2021/08/18 00:57:07;;;;;;;4.88;4.28;;;;;;;12.39;65.00;99164.34;522739;1088;116402;-61
2021/08/18 01:07:14;;;;;;;7.80;3.73;;;;;;;12.57;64.63;99158.56;532618;1090;116926;-61
2021/08/18 01:17:22;;;;;;;4.90;3.47;;;;;;;12.68;64.34;99161.19;531864;1089;117180;-62
2021/08/18 01:27:30;;;;;;;6.60;4.43;;;;;;;12.77;64.35;99159.63;532564;1089;116835;-62
2021/08/18 01:37:37;;;;;;;4.70;4.20;;;;;;;12.88;64.34;99146.44;531784;1089;116875;-62
2021/08/18 01:47:44;;;;;;;6.37;4.37;;;;;;;12.89;64.47;99140.20;532646;1089;116331;-62
2021/08/18 01:57:51;;;;;;;8.07;4.80;;;;;;;12.85;64.70;99145.84;532636;1088;116698;-62
2021/08/18 02:07:58;;;;;;;6.33;4.30;;;;;;;12.85;64.75;99151.92;531787;1088;117260;-62
2021/08/18 02:18:06;;;;;;;7.93;4.48;;;;;;;12.88;65.03;99149.06;532563;1089;115733;-62
2021/08/18 02:28:13;;;;;;;7.55;4.63;;;;;;;12.93;65.15;99140.80;532613;1088;116986;-62
2021/08/18 02:38:20;;;;;;;5.33;4.67;;;;;;;12.88;65.29;99135.04;531849;1089;117152;-62
2021/08/18 02:48:26;;;;;;;7.13;4.67;;;;;;;12.78;65.37;99131.47;532607;1089;116832;-62
2021/08/18 02:58:33;;;;;;;6.47;4.63;;;;;;;12.67;65.60;99140.25;531964;1089;117475;-60
2021/08/18 03:08:39;;;;;;;7.37;4.43;;;;;;;12.44;65.85;99133.20;532539;1089;116809;-62
2021/08/18 03:18:46;;;;;;;7.23;4.90;;;;;;;12.38;66.29;99130.23;532595;1088;116079;-62
2021/08/18 03:28:52;;;;;;;8.78;4.70;;;;;;;12.44;66.53;99116.59;531875;1088;117035;-62
2021/08/18 03:38:59;;;;;;;6.30;5.67;;;;;;;12.39;66.70;99132.75;532639;1090;116969;-62
2021/08/18 03:49:06;;;;;;;7.80;6.00;;;;;;;12.40;66.97;99131.79;532587;1090;116412;-62
2021/08/18 03:59:12;;;;;;;13.17;6.27;;;;;;;12.63;67.06;99146.70;531861;1088;116140;-62
2021/08/18 04:09:19;;;;;;;7.70;5.17;;;;;;;13.06;66.67;99150.33;532624;1089;117361;-62
2021/08/18 04:19:26;;;;;;;8.67;5.07;;;;;;;13.24;66.30;99158.53;532573;1088;118078;-61
2021/08/18 04:29:33;;;;;;;6.03;5.43;;;;;;;13.25;66.13;99168.11;532172;1089;116451;-62
2021/08/18 04:39:39;;;;;;;9.13;6.90;;;;;;;13.30;66.23;99181.73;532520;1089;116071;-62
2021/08/18 04:49:46;;;;;;;9.90;6.43;;;;;;;13.58;66.00;99182.14;531726;1089;116191;-62
2021/08/18 04:59:53;;;;;;;8.17;6.07;;;;;;;13.86;65.79;99190.36;532604;1089;116904;-62
2021/08/18 05:10:04;;;;;;;9.50;6.47;;;;;;;14.12;65.39;99193.44;532529;1088;116419;-62
2021/08/18 05:20:12;;;;;;;8.90;6.27;;;;;;;14.50;65.00;99206.10;531853;1088;116451;-62
2021/08/18 05:30:20;;;;;;;9.85;6.48;;;;;;;15.45;64.03;99198.64;532501;1089;116836;-63
2021/08/18 05:40:27;;;;;;;10.50;5.93;;;;;;;17.00;61.69;99199.31;532533;1089;118738;-62
2021/08/18 05:50:33;;;;;;;6.60;5.23;;;;;;;17.71;59.95;99212.73;532531;1089;116671;-60
2021/08/18 06:00:39;;;;;;;9.63;6.30;;;;;;;20.98;57.10;99207.53;532495;1090;117417;-60
2021/08/18 06:10:46;;;;;;;11.43;6.47;;;;;;;27.53;51.63;99191.64;531777;1089;116804;-61
2021/08/18 06:20:53;;;;;;;10.30;5.60;;;;;;;32.33;43.25;99195.83;532555;1087;118088;-61
2021/08/18 06:30:59;;;;;;;12.20;7.93;;;;;;;37.37;35.60;99185.90;532323;1089;117372;-61
2021/08/18 06:41:06;;;;;;;5.48;5.00;;;;;;;39.87;31.99;99184.20;531791;1089;117526;-60
2021/08/18 06:51:15;;;;;;;7.83;4.85;;;;;;;42.42;27.30;99185.23;532565;1089;117631;-60
2021/08/18 07:01:22;;;;;;;5.53;5.03;;;;;;;45.47;24.24;99186.47;532461;1089;117005;-60
2021/08/18 07:11:29;;;;;;;5.38;4.88;;;;;;;44.25;21.85;99196.61;531860;1088;117688;-61
2021/08/18 07:21:35;;;;;;;5.40;4.90;;;;;;;40.20;22.47;99205.29;532581;1088;116646;-60
2021/08/18 07:31:42;;;;;;;5.87;5.20;;;;;;;39.32;22.95;99199.44;531813;1088;116047;-62
2021/08/18 07:41:48;;;;;;;5.27;4.80;;;;;;;38.16;22.34;99195.02;532530;1088;116861;-65
2021/08/18 07:51:55;;;;;;;6.17;4.47;;;;;;;31.56;25.24;99202.58;532619;1089;115941;-66
2021/08/18 08:02:02;;;;;;;4.83;4.43;;;;;;;28.24;28.94;99213.89;531867;1089;116208;-61
2021/08/18 08:12:09;;;;;;;6.13;5.17;;;;;;;25.03;32.19;99211.06;532490;1089;117225;-61
2021/08/18 08:22:16;;;;;;;7.17;4.80;;;;;;;27.06;31.80;99211.66;532532;1089;116280;-63
2021/08/18 08:32:22;;;;;;;5.38;4.45;;;;;;;25.33;33.17;99201.81;531849;1088;117310;-61
2021/08/18 08:42:29;;;;;;;6.63;4.48;;;;;;;24.87;34.51;99203.38;532670;1088;115980;-62
2021/08/18 08:52:36;;;;;;;5.70;4.70;;;;;;;24.56;35.44;99192.09;531865;1088;116024;-61
2021/08/18 09:02:42;;;;;;;6.18;4.50;;;;;;;25.09;35.26;99181.75;532518;1089;116381;-63
2021/08/18 09:12:49;;;;;;;8.13;4.33;;;;;;;23.99;35.70;99205.56;532541;1088;117680;-62
2021/08/18 09:22:58;;;;;;;6.30;3.90;;;;;;;24.21;35.85;99202.86;531887;1088;116800;-61
2021/08/18 09:33:11;;;;;;;7.33;4.47;;;;;;;24.20;35.94;99193.16;532617;1088;117611;-62
2021/08/18 09:43:21;;;;;;;6.23;3.60;;;;;;;23.65;36.61;99193.77;531215;1089;116140;-65
2021/08/18 09:53:30;;;;;;;5.53;4.47;;;;;;;23.48;36.59;99185.17;524691;1088;116311;-66
2021/08/18 10:03:37;;;;;;;7.30;3.80;;;;;;;22.74;37.45;99185.23;532482;1089;116500;-72
2021/08/18 10:13:44;;;;;;;9.10;4.05;;;;;;;22.41;38.40;99177.59;531843;1088;116646;-77
2021/08/18 10:23:57;;;;;;;4.13;3.77;;;;;;;23.51;37.73;99163.34;532555;1089;117183;-68
2021/08/18 10:34:04;;;;;;;5.60;4.00;;;;;;;23.13;37.55;99169.77;532459;1089;116199;-72
2021/08/18 10:44:37;;;;;;;5.10;4.03;;;;;;;21.76;38.74;99174.61;529190;1088;117516;-63
2021/08/18 10:54:45;;;;;;;7.70;3.73;;;;;;;21.71;40.01;99174.34;532511;1088;116506;-65
2021/08/18 11:04:50;;;;;;;;;;;;;;;21.80;40.47;99165.20;531834;1088;116431;-59
2021/08/18 11:14:57;;;;;;;7.33;3.50;;;;;;;22.61;40.20;99158.30;532120;1088;103775;-60
2021/08/18 11:25:05;;;;;;;3.67;3.17;;;;;;;23.16;38.51;99153.34;532617;1088;116366;-68
2021/08/18 11:35:13;;;;;;;4.50;2.60;;;;;;;22.35;38.47;99164.95;531800;1089;116641;-59
2021/08/18 11:45:19;;;;;;;6.08;3.05;;;;;;;22.16;39.04;99167.16;532597;1089;116855;-55
2021/08/18 11:55:30;;;;;;;6.90;2.70;;;;;;;22.74;38.99;99153.13;532608;1089;117016;-61
2021/08/18 12:05:38;;;;;;;6.70;2.63;;;;;;;22.46;38.52;99155.64;532562;1089;117814;-58
2021/08/18 12:15:49;;;;;;;3.40;3.03;;;;;;;22.72;38.14;99154.32;532606;1089;115908;-60
2021/08/18 12:25:56;;;;;;;4.03;2.80;;;;;;;22.54;38.39;99155.55;531763;1088;116795;-59
2021/08/18 12:36:12;;;;;;;7.18;2.38;;;;;;;22.58;38.06;99170.23;532569;1088;116134;-60
2021/08/18 12:46:25;;;;;;;5.47;3.37;;;;;;;22.45;38.57;99160.15;532566;1089;117540;-60
2021/08/18 12:56:31;;;;;;;6.07;2.90;;;;;;;21.90;38.73;99163.09;531750;1089;116190;-58
2021/08/18 13:06:38;;;;;;;5.40;3.67;;;;;;;21.84;39.25;99150.48;532503;1088;116635;-60
2021/08/18 13:16:44;;;;;;;4.60;3.13;;;;;;;20.95;40.42;99142.02;531885;1089;116943;-62
2021/08/18 13:26:53;;;;;;;6.97;3.50;;;;;;;20.51;41.69;99142.57;532605;1089;175844;-62
2021/08/18 13:37:00;;;;;;;3.23;2.70;;;;;;;20.92;41.22;99134.34;532608;1088;116523;-59
2021/08/18 13:47:08;;;;;;;4.97;2.93;;;;;;;20.88;41.67;99129.53;531873;1088;116557;-60
2021/08/18 13:57:15;;;;;;;3.20;2.33;;;;;;;21.00;41.31;99144.97;532578;1088;116225;-64
2021/08/18 14:07:21;;;;;;;3.20;2.80;;;;;;;21.20;41.58;99133.83;531085;1088;117319;-59
2021/08/18 14:17:28;;;;;;;3.90;2.33;;;;;;;21.44;40.81;99139.13;531706;1088;116820;-63
2021/08/18 14:27:34;;;;;;;5.90;2.10;;;;;;;21.50;39.67;99141.09;528965;1089;116911;-63
2021/08/18 14:37:42;;;;;;;3.83;2.17;;;;;;;21.47;40.57;99136.09;519372;1088;116952;-62
2021/08/18 14:47:48;;;;;;;2.87;2.50;;;;;;;21.17;39.86;99139.50;532588;1089;117677;-62
2021/08/18 14:57:55;;;;;;;1.70;1.30;;;;;;;21.04;40.15;99126.77;532596;1088;115886;-62
2021/08/18 15:08:01;;;;;;;4.73;1.53;;;;;;;20.97;40.19;99126.66;531771;1089;116164;-61
2021/08/18 15:18:08;;;;;;;1.45;1.35;;;;;;;20.93;39.68;99130.67;532596;1089;115981;-63
2021/08/18 15:28:14;;;;;;;2.17;1.43;;;;;;;20.34;40.56;99133.81;532604;1088;116261;-62
2021/08/18 15:38:21;;;;;;;2.90;1.40;;;;;;;20.17;41.00;99131.20;531859;1088;116240;-63
2021/08/18 15:48:28;;;;;;;4.67;1.90;;;;;;;19.72;41.97;99120.95;532628;1089;116892;-63
2021/08/18 15:58:34;;;;;;;3.87;1.20;;;;;;;20.05;41.61;99114.77;531872;1088;117069;-61
2021/08/18 16:08:40;;;;;;;1.30;1.20;;;;;;;19.63;41.85;99111.34;532580;1088;116844;-62
2021/08/18 16:18:47;;;;;;;2.67;1.97;;;;;;;19.22;41.95;99098.06;532515;1089;116435;-63
2021/08/18 16:28:53;;;;;;;3.25;1.43;;;;;;;18.96;42.27;99097.19;531870;1090;117732;-62
2021/08/18 16:39:03;;;;;;;3.08;2.40;;;;;;;18.72;43.15;99088.18;528943;1090;116010;-64
2021/08/18 16:49:10;;;;;;;3.60;1.47;;;;;;;18.46;43.50;99097.10;517123;1088;10001590;-62
2021/08/18 16:59:16;;;;;;;5.57;1.70;;;;;;;18.20;44.06;99094.52;515069;1090;117323;-61
2021/08/18 17:09:23;;;;;;;4.15;1.60;;;;;;;17.83;45.01;99099.12;515374;1088;116752;-61
2021/08/18 17:19:30;;;;;;;10.13;2.50;;;;;;;17.41;45.91;99103.34;515391;1088;117635;-63
2021/08/18 17:29:37;;;;;;;3.40;2.03;;;;;;;17.02;47.15;99103.70;517839;1088;116845;-62
2021/08/18 17:39:44;;;;;;;12.10;2.73;;;;;;;16.62;48.69;99097.81;515378;1089;117402;-59
2021/08/18 17:49:52;;;;;;;10.40;1.80;;;;;;;16.33;49.55;99106.75;514277;1088;116709;-61
2021/08/18 17:59:58;;;;;;;6.07;2.10;;;;;;;16.05;51.01;99099.66;518839;1088;116906;-61
2021/08/18 18:10:08;;;;;;;4.27;2.10;;;;;;;15.64;51.77;99093.77;515321;1089;117008;-60
2021/08/18 18:20:15;;;;;;;10.53;3.33;;;;;;;15.22;53.30;99101.06;518744;1090;117283;-62
2021/08/18 18:30:22;;;;;;;3.63;2.30;;;;;;;14.93;54.28;99106.36;524179;1088;117589;-61
2021/08/18 18:40:29;;;;;;;16.70;3.20;;;;;;;14.67;55.06;99104.22;518364;1088;116751;-60
2021/08/18 18:50:36;;;;;;;9.87;3.50;;;;;;;14.46;55.62;99106.98;527014;1088;116776;-62
2021/08/18 19:00:43;;;;;;;4.40;2.20;;;;;;;14.35;56.23;99107.91;532514;1089;118171;-62
2021/08/18 19:10:49;;;;;;;5.23;3.73;;;;;;;14.28;56.61;99105.81;531806;1088;117381;-61
2021/08/18 19:20:56;;;;;;;7.83;4.40;;;;;;;14.34;57.28;99087.75;525253;1088;118232;-62
2021/08/18 19:31:02;;;;;;;6.07;3.30;;;;;;;14.46;56.97;99078.73;527660;1088;116329;-61
2021/08/18 19:41:10;;;;;;;8.33;3.57;;;;;;;14.43;57.64;99085.15;519077;1089;10001505;-61
2021/08/18 19:51:17;;;;;;;3.63;2.90;;;;;;;14.55;57.95;99083.20;519351;1089;116767;-61
2021/08/18 20:01:25;;;;;;;3.28;2.50;;;;;;;14.81;57.70;99081.89;532466;1089;117203;-62
2021/08/18 20:11:32;;;;;;;3.17;2.40;;;;;;;15.09;57.19;99079.37;531771;1089;117301;-62
2021/08/18 20:21:38;;;;;;;4.97;2.83;;;;;;;15.31;57.04;99080.89;521465;1088;116272;-62
2021/08/18 20:31:45;;;;;;;5.00;2.60;;;;;;;15.46;56.74;99083.09;513313;1088;115945;-58
2021/08/18 20:41:52;;;;;;;5.03;3.30;;;;;;;15.50;56.91;99066.79;532436;1088;117350;-58
2021/08/18 20:51:58;;;;;;;5.03;3.07;;;;;;;15.53;56.74;99073.61;520948;1089;116320;-61
2021/08/18 21:02:06;;;;;;;7.67;3.57;;;;;;;15.51;56.91;99072.89;515552;1089;116917;-62
2021/08/18 21:12:12;;;;;;;4.43;2.20;;;;;;;15.52;56.78;99074.56;515132;1089;116875;-61
2021/08/18 21:22:19;;;;;;;5.80;2.60;;;;;;;15.42;57.41;99085.17;515167;1088;116889;-61
2021/08/18 21:32:26;;;;;;;2.27;1.97;;;;;;;15.13;58.02;99089.53;514413;1088;117147;-62
2021/08/18 21:42:33;;;;;;;2.35;2.05;;;;;;;14.92;58.90;99092.33;518978;1088;117190;-60
2021/08/18 21:52:39;;;;;;;2.87;2.20;;;;;;;14.71;59.42;99087.96;531804;1089;116600;-59
2021/08/18 22:02:46;;;;;;;3.50;1.90;;;;;;;14.55;60.13;99083.20;530951;1090;116582;-59
2021/08/18 22:12:53;;;;;;;3.43;2.07;;;;;;;14.37;60.89;99080.39;523735;1089;116222;-63
2021/08/18 22:23:00;;;;;;;1.93;1.77;;;;;;;14.26;61.58;99080.50;531775;1089;116762;-63
2021/08/18 22:33:06;;;;;;;2.93;2.63;;;;;;;14.35;61.96;99084.13;532483;1088;117481;-63
2021/08/18 22:43:13;;;;;;;3.20;2.17;;;;;;;14.42;62.27;99078.17;518846;1088;116888;-63
2021/08/18 22:53:19;;;;;;;5.17;2.10;;;;;;;14.43;62.48;99077.23;531368;1089;116858;-66
2021/08/18 23:03:26;;;;;;;3.60;2.07;;;;;;;14.45;62.92;99090.28;532555;1088;116612;-67
2021/08/18 23:13:32;;;;;;;2.83;1.93;;;;;;;14.45;63.06;99077.07;532497;1089;117615;-67
2021/08/18 23:23:38;;;;;;;2.53;2.33;;;;;;;14.44;63.17;99072.76;532545;1088;117031;-66
2021/08/18 23:33:47;;;;;;;4.57;2.97;;;;;;;14.36;63.62;99076.09;532582;1089;117475;-67
2021/08/18 23:43:54;;;;;;;3.28;2.03;;;;;;;14.47;63.66;99069.02;531770;1088;116865;-67
2021/08/18 23:54:00;;;;;;;2.50;2.07;;;;;;;14.45;63.94;99086.81;532601;1088;116351;-67
